createdAt,value
2023-10-20T00:01:27.359Z,97733.81
2023-10-20T00:03:53.810Z,97726.47
2023-10-20T00:06:20.687Z,97724.44
2023-10-20T00:08:47.154Z,97735.81
2023-10-20T00:11:16.228Z,97735.81
2023-10-20T00:13:43.094Z,97730.50
2023-10-20T00:16:10.317Z,97735.00
2023-10-20T00:18:36.765Z,97740.09
2023-10-20T00:21:05.752Z,97738.22
2023-10-20T00:23:34.819Z,97747.59
2023-10-20T00:26:01.482Z,97750.84
2023-10-20T00:28:29.989Z,97745.94
2023-10-20T00:30:58.963Z,97733.38
2023-10-20T00:33:25.636Z,97725.78
2023-10-20T00:35:52.065Z,97732.09
2023-10-20T00:38:18.590Z,97729.25
2023-10-20T00:40:49.439Z,97716.63
2023-10-20T00:43:16.232Z,97722.13
2023-10-20T00:45:47.732Z,97721.91
2023-10-20T00:48:15.167Z,97721.50
2023-10-20T00:50:42.208Z,97718.28
2023-10-20T00:53:10.336Z,97711.34
2023-10-20T00:55:37.285Z,97704.81
2023-10-20T00:58:04.616Z,97691.56
2023-10-20T01:00:31.113Z,97686.28
2023-10-20T01:02:58.607Z,97679.97
2023-10-20T01:05:25.285Z,97678.13
2023-10-20T01:07:54.344Z,97680.19
2023-10-20T01:10:20.839Z,97665.75
2023-10-20T01:12:47.300Z,97658.22
2023-10-20T01:15:16.020Z,97650.28
2023-10-20T01:17:43.193Z,97647.03
2023-10-20T01:20:10.800Z,97643.78
2023-10-20T01:22:37.229Z,97647.84
2023-10-20T01:25:03.990Z,97644.59
2023-10-20T01:27:30.586Z,97632.16
2023-10-20T01:30:01.966Z,97634.81
2023-10-20T01:32:28.552Z,97635.41
2023-10-20T01:34:55.409Z,97636.44
2023-10-20T01:37:21.938Z,97627.94
2023-10-20T01:39:48.563Z,97627.47
2023-10-20T01:42:15.176Z,97621.84
2023-10-20T01:44:41.862Z,97620.22
2023-10-20T01:47:08.527Z,97619.41
2023-10-20T01:49:35.090Z,97612.47
2023-10-20T01:52:01.522Z,97610.84
2023-10-20T01:54:30.180Z,97601.09
2023-10-20T01:56:56.686Z,97590.06
2023-10-20T01:59:23.143Z,97580.34
2023-10-20T02:01:49.706Z,97576.06
2023-10-20T02:04:16.159Z,97565.69
2023-10-20T02:06:45.662Z,97566.31
2023-10-20T02:09:12.125Z,97556.75
2023-10-20T02:11:41.167Z,97547.78
2023-10-20T02:14:07.963Z,97549.41
2023-10-20T02:16:34.434Z,97533.34
2023-10-20T02:19:01.038Z,97524.19
2023-10-20T02:21:27.698Z,97537.19
2023-10-20T02:23:56.506Z,97539.84
2023-10-20T02:26:23.229Z,97531.94
2023-10-20T02:28:49.705Z,97522.59
2023-10-20T02:31:20.669Z,97512.22
2023-10-20T02:33:51.149Z,97484.53
2023-10-20T02:36:18.676Z,97470.88
2023-10-20T02:38:47.699Z,97467.19
2023-10-20T02:41:15.313Z,97473.47
2023-10-20T02:43:41.934Z,97464.72
2023-10-20T02:46:10.033Z,97458.84
2023-10-20T02:48:36.645Z,97451.09
2023-10-20T02:51:15.999Z,97450.47
2023-10-20T02:53:43.037Z,97442.16
2023-10-20T02:56:12.698Z,97436.25
2023-10-20T02:58:39.750Z,97441.53
2023-10-20T03:01:10.720Z,97443.56
2023-10-20T03:03:40.683Z,97440.75
2023-10-20T03:06:08.193Z,97440.91
2023-10-20T03:08:39.423Z,97431.19
2023-10-20T03:11:10.382Z,97413.88
2023-10-20T03:13:37.130Z,97406.53
2023-10-20T03:16:03.663Z,97394.50
2023-10-20T03:18:30.339Z,97388.63
2023-10-20T03:21:03.875Z,97388.63
2023-10-20T03:23:31.546Z,97391.06
2023-10-20T03:25:58.284Z,97390.47
2023-10-20T03:28:25.089Z,97389.47
2023-10-20T03:30:52.759Z,97382.13
2023-10-20T03:33:19.668Z,97386.59
2023-10-20T03:35:49.307Z,97381.91
2023-10-20T03:38:20.361Z,97387.41
2023-10-20T03:40:47.510Z,97386.81
2023-10-20T03:43:14.124Z,97391.13
2023-10-20T03:45:49.715Z,97386.28
2023-10-20T03:48:16.307Z,97378.78
2023-10-20T03:50:43.319Z,97372.03
2023-10-20T03:53:13.380Z,97359.81
2023-10-20T03:55:40.087Z,97352.84
2023-10-20T03:58:06.559Z,97344.47
2023-10-20T04:00:38.035Z,97351.25
2023-10-20T04:03:04.612Z,97347.19
2023-10-20T04:05:32.926Z,97330.44
2023-10-20T04:07:59.618Z,97339.97
2023-10-20T04:10:29.571Z,97334.72
2023-10-20T04:12:56.022Z,97332.06
2023-10-20T04:15:27.110Z,97328.78
2023-10-20T04:17:54.375Z,97311.47
2023-10-20T04:20:21.544Z,97303.34
2023-10-20T04:22:52.335Z,97292.97
2023-10-20T04:25:20.117Z,97276.47
2023-10-20T04:27:59.091Z,97265.44
2023-10-20T04:30:44.615Z,97252.16
2023-10-20T04:33:30.171Z,97242.78
2023-10-20T04:36:15.234Z,97249.59
2023-10-20T04:39:00.289Z,97246.69
2023-10-20T04:41:47.812Z,97244.63
2023-10-20T04:44:17.307Z,97241.81
2023-10-20T04:46:56.949Z,97231.66
2023-10-20T04:49:49.134Z,97226.44
2023-10-20T04:52:16.602Z,97232.44
2023-10-20T04:54:46.488Z,97227.69
2023-10-20T04:57:19.137Z,97226.13
2023-10-20T04:59:46.087Z,97211.50
2023-10-20T05:02:33.540Z,97210.91
2023-10-20T05:05:02.604Z,97203.81
2023-10-20T05:07:29.700Z,97183.09
2023-10-20T05:09:58.732Z,97177.81
2023-10-20T05:12:29.367Z,97164.59
2023-10-20T05:14:57.917Z,97153.41
2023-10-20T05:17:26.192Z,97123.94
2023-10-20T05:19:54.754Z,97117.28
2023-10-20T05:22:23.836Z,97104.03
2023-10-20T05:24:52.536Z,97092.66
2023-10-20T05:27:18.986Z,97065.00
2023-10-20T05:29:45.453Z,97054.00
2023-10-20T05:32:11.944Z,97062.97
2023-10-20T05:34:40.645Z,97052.16
2023-10-20T05:37:07.320Z,97057.25
2023-10-20T05:39:34.168Z,97060.25
2023-10-20T05:42:02.265Z,97056.22
2023-10-20T05:44:35.421Z,97060.47
2023-10-20T05:47:05.325Z,97032.63
2023-10-20T05:49:33.669Z,97033.06
2023-10-20T05:52:00.175Z,97035.91
2023-10-20T05:54:26.852Z,97040.38
2023-10-20T05:56:53.347Z,97038.78
2023-10-20T05:59:19.851Z,97041.72
2023-10-20T06:01:46.981Z,97050.69
2023-10-20T06:04:13.570Z,97037.59
2023-10-20T06:06:40.700Z,97032.09
2023-10-20T06:09:12.534Z,97032.75
2023-10-20T06:11:39.573Z,97023.88
2023-10-20T06:14:06.153Z,97016.75
2023-10-20T06:16:35.147Z,96997.81
2023-10-20T06:19:01.693Z,96982.81
2023-10-20T06:21:31.266Z,96972.25
2023-10-20T06:24:02.386Z,96957.19
2023-10-20T06:26:28.964Z,96941.34
2023-10-20T06:28:55.487Z,96928.25
2023-10-20T06:31:21.919Z,96904.06
2023-10-20T06:33:49.729Z,96892.09
2023-10-20T06:36:23.583Z,96889.59
2023-10-20T06:38:50.329Z,96874.50
2023-10-20T06:41:17.204Z,96875.06
2023-10-20T06:43:45.045Z,96878.28
2023-10-20T06:46:14.019Z,96863.91
2023-10-20T06:48:42.914Z,96842.53
2023-10-20T06:51:11.972Z,96834.94
2023-10-20T06:53:38.449Z,96850.53
2023-10-20T06:56:15.263Z,96835.84
2023-10-20T06:58:44.046Z,96843.72
2023-10-20T07:01:12.881Z,96843.78
2023-10-20T07:03:39.603Z,96856.97
2023-10-20T07:06:10.378Z,96867.66
2023-10-20T07:08:36.811Z,96845.66
2023-10-20T07:11:06.423Z,96846.56
2023-10-20T07:13:33.485Z,96848.63
2023-10-20T07:16:00.368Z,96831.75
2023-10-20T07:18:27.759Z,96818.28
2023-10-20T07:20:59.275Z,96828.50
2023-10-20T07:23:26.912Z,96816.84
2023-10-20T07:25:54.420Z,96826.19
2023-10-20T07:28:21.512Z,96825.66
2023-10-20T07:30:48.074Z,96827.06
2023-10-20T07:33:14.687Z,96833.09
2023-10-20T07:35:43.356Z,96836.25
2023-10-20T07:38:09.837Z,96847.78
2023-10-20T07:40:36.504Z,96875.66
2023-10-20T07:43:07.305Z,96872.81
2023-10-20T07:45:41.899Z,96889.06
2023-10-20T07:48:09.956Z,96901.03
2023-10-20T07:50:36.682Z,96913.00
2023-10-20T07:53:04.819Z,96918.41
2023-10-20T07:55:33.751Z,96930.25
2023-10-20T07:58:00.223Z,96927.28
2023-10-20T08:00:26.665Z,96921.03
2023-10-20T08:02:55.310Z,96924.13
2023-10-20T08:05:26.354Z,96921.03
2023-10-20T08:07:54.303Z,96913.31
2023-10-20T08:10:22.737Z,96916.31
2023-10-20T08:12:54.216Z,96918.50
2023-10-20T08:15:20.771Z,96926.47
2023-10-20T08:17:50.860Z,96938.44
2023-10-20T08:20:18.014Z,96956.75
2023-10-20T08:22:46.769Z,96952.56
2023-10-20T08:25:13.322Z,96959.34
2023-10-20T08:27:39.750Z,96965.00
2023-10-20T08:30:07.031Z,96964.69
2023-10-20T08:32:33.705Z,96977.47
2023-10-20T08:35:00.421Z,96979.53
2023-10-20T08:37:27.072Z,96998.31
2023-10-20T08:39:55.430Z,96996.00
2023-10-20T08:42:22.982Z,96999.09
2023-10-20T08:44:54.577Z,97007.13
2023-10-20T08:47:22.808Z,97014.56
2023-10-20T08:49:50.714Z,97026.53
2023-10-20T08:52:19.365Z,97038.56
2023-10-20T08:54:48.971Z,97041.31
2023-10-20T08:57:15.599Z,97063.16
2023-10-20T08:59:51.724Z,97083.19
2023-10-20T09:02:18.541Z,97111.25
2023-10-20T09:04:50.609Z,97119.78
2023-10-20T09:07:17.610Z,97126.25
2023-10-20T09:09:47.399Z,97129.69
2023-10-20T09:12:14.770Z,97137.41
2023-10-20T09:14:41.282Z,97146.97
2023-10-20T09:17:11.791Z,97158.13
2023-10-20T09:19:40.544Z,97137.53
2023-10-20T09:22:06.975Z,97120.34
2023-10-20T09:24:35.808Z,97125.47
2023-10-20T09:27:06.136Z,97122.13
2023-10-20T09:29:36.250Z,97131.81
2023-10-20T09:32:05.893Z,97128.41
2023-10-20T09:34:32.336Z,97130.72
2023-10-20T09:37:01.470Z,97131.88
2023-10-20T09:39:45.859Z,97120.16
2023-10-20T09:42:27.493Z,97128.47
2023-10-20T09:45:07.515Z,97124.78
2023-10-20T09:47:39.166Z,97122.28
2023-10-20T09:50:06.705Z,97128.38
2023-10-20T09:52:33.942Z,97126.94
2023-10-20T09:55:01.838Z,97127.16
2023-10-20T09:57:31.363Z,97127.72
2023-10-20T09:59:58.776Z,97134.53
2023-10-20T10:02:30.035Z,97129.59
2023-10-20T10:04:58.156Z,97134.19
2023-10-20T10:07:30.298Z,97120.03
2023-10-20T10:09:58.052Z,97118.16
2023-10-20T10:12:26.871Z,97135.00
2023-10-20T10:15:07.201Z,97150.00
2023-10-20T10:17:53.209Z,97149.09
2023-10-20T10:20:27.489Z,97155.34
2023-10-20T10:23:01.408Z,97159.03
2023-10-20T10:25:57.962Z,97178.16
2023-10-20T10:28:26.808Z,97180.25
2023-10-20T10:30:53.788Z,97179.44
2023-10-20T10:33:24.785Z,97175.84
2023-10-20T10:36:04.448Z,97177.56
2023-10-20T10:38:32.318Z,97173.75
2023-10-20T10:40:59.063Z,97177.59
2023-10-20T10:43:25.927Z,97175.09
2023-10-20T10:45:55.593Z,97188.59
2023-10-20T10:48:29.020Z,97181.06
2023-10-20T10:50:58.186Z,97178.63
2023-10-20T10:53:27.036Z,97193.28
2023-10-20T10:55:55.780Z,97176.44
2023-10-20T10:58:24.248Z,97184.44
2023-10-20T11:00:53.014Z,97180.19
2023-10-20T11:03:24.034Z,97180.63
2023-10-20T11:05:52.480Z,97176.47
2023-10-20T11:08:20.298Z,97180.03
2023-10-20T11:10:47.524Z,97197.94
2023-10-20T11:13:21.210Z,97198.50
2023-10-20T11:15:48.586Z,97189.16
2023-10-20T11:18:17.633Z,97205.34
2023-10-20T11:20:48.934Z,97191.34
2023-10-20T11:23:20.418Z,97187.22
2023-10-20T11:25:49.063Z,97182.94
2023-10-20T11:28:15.634Z,97195.50
2023-10-20T11:30:43.875Z,97196.66
2023-10-20T11:33:15.226Z,97201.16
2023-10-20T11:35:45.592Z,97209.03
2023-10-20T11:38:16.005Z,97212.25
2023-10-20T11:40:42.837Z,97213.06
2023-10-20T11:43:12.506Z,97209.59
2023-10-20T11:45:39.112Z,97227.03
2023-10-20T11:48:08.655Z,97232.22
2023-10-20T11:50:35.320Z,97240.63
2023-10-20T11:53:06.872Z,97245.84
2023-10-20T11:55:33.701Z,97240.28
2023-10-20T11:58:01.929Z,97240.38
2023-10-20T12:00:28.507Z,97242.31
2023-10-20T12:02:57.562Z,97247.88
2023-10-20T12:05:24.192Z,97264.03
2023-10-20T12:07:51.618Z,97267.25
2023-10-20T12:10:18.174Z,97280.44
2023-10-20T12:12:44.625Z,97287.75
2023-10-20T12:15:12.824Z,97295.97
2023-10-20T12:17:42.209Z,97304.28
2023-10-20T12:20:10.936Z,97301.72
2023-10-20T12:22:37.385Z,97295.44
2023-10-20T12:25:09.879Z,97297.53
2023-10-20T12:27:36.393Z,97297.53
2023-10-20T12:30:03.193Z,97301.00
2023-10-20T12:32:32.872Z,97298.59
2023-10-20T12:34:59.499Z,97297.19
2023-10-20T12:37:26.427Z,97293.09
2023-10-20T12:39:52.889Z,97281.53
2023-10-20T12:42:19.327Z,97297.00
2023-10-20T12:44:48.201Z,97300.38
2023-10-20T12:47:16.014Z,97310.69
2023-10-20T12:49:42.584Z,97315.66
2023-10-20T12:52:09.234Z,97318.47
2023-10-20T12:54:35.857Z,97330.00
2023-10-20T12:57:02.552Z,97330.38
2023-10-20T12:59:33.691Z,97320.69
2023-10-20T13:02:00.159Z,97323.22
2023-10-20T13:04:26.725Z,97326.31
2023-10-20T13:07:00.568Z,97326.22
2023-10-20T13:09:28.286Z,97341.47
2023-10-20T13:11:55.170Z,97349.31
2023-10-20T13:14:21.805Z,97350.47
2023-10-20T13:16:51.627Z,97350.91
2023-10-20T13:19:19.338Z,97358.44
2023-10-20T13:21:45.835Z,97361.31
2023-10-20T13:24:12.563Z,97360.75
2023-10-20T13:26:39.078Z,97364.31
2023-10-20T13:29:06.956Z,97361.09
2023-10-20T13:31:36.806Z,97353.00
2023-10-20T13:34:07.916Z,97362.81
2023-10-20T13:36:39.478Z,97376.09
2023-10-20T13:39:17.261Z,97362.59
2023-10-20T13:41:45.732Z,97369.53
2023-10-20T13:44:13.595Z,97377.75
2023-10-20T13:46:42.395Z,97377.19
2023-10-20T13:49:08.854Z,97368.50
2023-10-20T13:51:35.615Z,97363.66
2023-10-20T13:54:02.096Z,97363.75
2023-10-20T13:56:28.548Z,97368.03
2023-10-20T13:58:55.171Z,97363.19
2023-10-20T14:01:24.186Z,97370.41
2023-10-20T14:03:53.996Z,97376.66
2023-10-20T14:06:20.938Z,97387.13
2023-10-20T14:08:47.965Z,97396.59
2023-10-20T14:11:15.815Z,97402.38
2023-10-20T14:13:42.440Z,97423.03
2023-10-20T14:16:11.143Z,97429.81
2023-10-20T14:18:42.764Z,97441.69
2023-10-20T14:21:09.740Z,97449.06
2023-10-20T14:23:36.525Z,97459.91
2023-10-20T14:26:03.307Z,97461.16
2023-10-20T14:28:32.963Z,97467.16
2023-10-20T14:31:02.929Z,97472.09
2023-10-20T14:33:30.174Z,97483.38
2023-10-20T14:36:00.451Z,97480.94
2023-10-20T14:38:27.707Z,97481.16
2023-10-20T14:41:05.313Z,97480.59
2023-10-20T14:43:36.314Z,97477.94
2023-10-20T14:46:04.903Z,97502.84
2023-10-20T14:48:32.348Z,97513.91
2023-10-20T14:51:00.140Z,97525.56
2023-10-20T14:53:29.799Z,97515.38
2023-10-20T14:55:56.353Z,97495.59
2023-10-20T14:58:22.821Z,97500.91
2023-10-20T15:00:50.526Z,97508.72
2023-10-20T15:03:18.739Z,97513.66
2023-10-20T15:05:46.244Z,97513.88
2023-10-20T15:08:12.948Z,97519.59
2023-10-20T15:10:39.503Z,97529.84
2023-10-20T15:13:06.813Z,97550.69
2023-10-20T15:15:39.355Z,97544.44
2023-10-20T15:18:06.341Z,97549.78
2023-10-20T15:20:33.908Z,97550.69
2023-10-20T15:23:11.070Z,97559.66
2023-10-20T15:25:43.429Z,97565.38
2023-10-20T15:28:12.384Z,97569.72
2023-10-20T15:30:39.908Z,97569.13
2023-10-20T15:33:09.213Z,97574.63
2023-10-20T15:35:39.971Z,97584.22
2023-10-20T15:38:07.974Z,97584.66
2023-10-20T15:40:34.504Z,97589.38
2023-10-20T15:43:00.918Z,97589.50
2023-10-20T15:45:29.657Z,97589.94
2023-10-20T15:47:56.318Z,97596.09
2023-10-20T15:50:22.901Z,97588.00
2023-10-20T15:52:49.370Z,97595.34
2023-10-20T15:55:15.918Z,97594.16
2023-10-20T15:57:42.564Z,97610.91
2023-10-20T16:00:09.519Z,97606.03
2023-10-20T16:02:38.412Z,97625.44
2023-10-20T16:05:05.169Z,97618.31
2023-10-20T16:07:32.051Z,97615.50
2023-10-20T16:09:58.586Z,97615.56
2023-10-20T16:12:25.095Z,97621.69
2023-10-20T16:14:52.477Z,97618.63
2023-10-20T16:17:19.662Z,97618.84
2023-10-20T16:19:46.113Z,97620.09
2023-10-20T16:22:13.963Z,97630.28
2023-10-20T16:24:42.220Z,97644.97
2023-10-20T16:27:09.191Z,97640.91
2023-10-20T16:29:38.162Z,97648.06
2023-10-20T16:32:05.181Z,97657.22
2023-10-20T16:34:31.599Z,97659.28
2023-10-20T16:36:58.048Z,97658.88
2023-10-20T16:39:24.476Z,97661.13
2023-10-20T16:41:51.676Z,97658.88
2023-10-20T16:44:18.125Z,97651.97
2023-10-20T16:46:50.768Z,97652.19
2023-10-20T16:49:17.339Z,97643.25
2023-10-20T16:51:44.773Z,97659.72
2023-10-20T16:54:15.025Z,97656.09
2023-10-20T16:56:45.416Z,97651.22
2023-10-20T16:59:12.218Z,97652.84
2023-10-20T17:01:39.257Z,97644.72
2023-10-20T17:04:06.368Z,97640.63
2023-10-20T17:06:32.986Z,97639.19
2023-10-20T17:09:00.099Z,97638.59
2023-10-20T17:11:33.276Z,97639.03
2023-10-20T17:14:00.754Z,97653.69
2023-10-20T17:16:29.944Z,97657.72
2023-10-20T17:18:57.815Z,97663.44
2023-10-20T17:21:24.385Z,97671.56
2023-10-20T17:23:50.832Z,97654.50
2023-10-20T17:26:17.335Z,97658.38
2023-10-20T17:28:44.035Z,97669.97
2023-10-20T17:31:10.602Z,97673.19
2023-10-20T17:33:37.355Z,97676.66
2023-10-20T17:36:08.300Z,97671.59
2023-10-20T17:38:35.164Z,97678.91
2023-10-20T17:41:08.444Z,97662.81
2023-10-20T17:43:39.818Z,97661.19
2023-10-20T17:46:07.553Z,97658.16
2023-10-20T17:48:34.790Z,97662.63
2023-10-20T17:51:02.465Z,97652.44
2023-10-20T17:53:32.348Z,97641.47
2023-10-20T17:56:04.633Z,97636.97
2023-10-20T17:58:31.546Z,97642.09
2023-10-20T18:01:08.947Z,97653.28
2023-10-20T18:03:36.782Z,97672.19
2023-10-20T18:06:10.838Z,97672.41
2023-10-20T18:08:38.676Z,97667.06
2023-10-20T18:11:06.309Z,97673.16
2023-10-20T18:13:34.178Z,97667.25
2023-10-20T18:16:03.920Z,97665.41
2023-10-20T18:18:30.549Z,97664.81
2023-10-20T18:20:59.448Z,97655.63
2023-10-20T18:23:26.500Z,97656.03
2023-10-20T18:25:59.780Z,97666.59
2023-10-20T18:28:28.129Z,97671.06
2023-10-20T18:30:59.541Z,97671.47
2023-10-20T18:33:29.786Z,97665.34
2023-10-20T18:35:56.894Z,97667.38
2023-10-20T18:38:23.824Z,97665.91
2023-10-20T18:40:50.324Z,97656.78
2023-10-20T18:43:17.297Z,97655.34
2023-10-20T18:45:52.490Z,97654.69
2023-10-20T18:48:19.057Z,97649.41
2023-10-20T18:50:45.500Z,97649.91
2023-10-20T18:53:12.325Z,97644.19
2023-10-20T18:55:38.798Z,97655.56
2023-10-20T18:58:06.321Z,97658.78
2023-10-20T19:00:32.874Z,97660.59
2023-10-20T19:03:00.210Z,97659.38
2023-10-20T19:05:29.206Z,97667.75
2023-10-20T19:07:56.156Z,97660.88
2023-10-20T19:10:23.233Z,97665.78
2023-10-20T19:12:49.806Z,97664.94
2023-10-20T19:15:17.915Z,97654.81
2023-10-20T19:17:44.406Z,97659.69
2023-10-20T19:20:14.847Z,97657.47
2023-10-20T19:22:42.020Z,97661.31
2023-10-20T19:25:09.063Z,97671.91
2023-10-20T19:27:35.968Z,97673.94
2023-10-20T19:30:02.672Z,97682.66
2023-10-20T19:32:34.171Z,97690.63
2023-10-20T19:35:00.725Z,97696.28
2023-10-20T19:37:27.518Z,97695.47
2023-10-20T19:39:54.085Z,97695.47
2023-10-20T19:42:20.519Z,97689.97
2023-10-20T19:44:46.997Z,97693.66
2023-10-20T19:47:15.826Z,97707.47
2023-10-20T19:49:42.303Z,97710.09
2023-10-20T19:52:08.747Z,97711.72
2023-10-20T19:54:37.721Z,97706.47
2023-10-20T19:57:04.477Z,97710.94
2023-10-20T19:59:30.924Z,97718.44
2023-10-20T20:01:57.549Z,97725.97
2023-10-20T20:04:25.753Z,97725.94
2023-10-20T20:06:54.915Z,97722.69
2023-10-20T20:09:21.444Z,97730.88
2023-10-20T20:11:47.966Z,97741.81
2023-10-20T20:14:14.517Z,97741.44
2023-10-20T20:16:49.672Z,97738.19
2023-10-20T20:19:18.748Z,97750.38
2023-10-20T20:21:45.962Z,97747.94
2023-10-20T20:24:12.443Z,97752.00
2023-10-20T20:26:39.054Z,97750.19
2023-10-20T20:29:05.645Z,97752.41
2023-10-20T20:31:34.447Z,97756.47
2023-10-20T20:34:03.251Z,97757.28
2023-10-20T20:36:29.716Z,97760.13
2023-10-20T20:38:56.291Z,97763.41
2023-10-20T20:41:22.760Z,97767.06
2023-10-20T20:43:49.317Z,97774.97
2023-10-20T20:46:21.655Z,97779.66
2023-10-20T20:48:48.508Z,97787.38
2023-10-20T20:51:15.026Z,97776.81
2023-10-20T20:53:41.856Z,97786.16
2023-10-20T20:56:10.591Z,97782.75
2023-10-20T20:58:37.392Z,97778.47
2023-10-20T21:01:13.143Z,97784.38
2023-10-20T21:03:44.144Z,97789.41
2023-10-20T21:06:17.049Z,97801.59
2023-10-20T21:08:43.475Z,97796.91
2023-10-20T21:11:11.540Z,97793.84
2023-10-20T21:13:42.982Z,97811.16
2023-10-20T21:16:13.187Z,97810.13
2023-10-20T21:18:39.815Z,97801.59
2023-10-20T21:21:11.761Z,97802.97
2023-10-20T21:23:38.364Z,97793.03
2023-10-20T21:26:05.049Z,97804.06
2023-10-20T21:28:31.592Z,97793.88
2023-10-20T21:31:03.202Z,97785.75
2023-10-20T21:33:30.571Z,97792.31
2023-10-20T21:35:57.157Z,97788.25
2023-10-20T21:38:23.645Z,97802.91
2023-10-20T21:40:50.973Z,97794.78
2023-10-20T21:43:17.834Z,97795.63
2023-10-20T21:45:57.493Z,97788.47
2023-10-20T21:48:27.174Z,97784.03
2023-10-20T21:51:00.999Z,97791.53
2023-10-20T21:53:29.816Z,97786.66
2023-10-20T21:56:07.810Z,97780.94
2023-10-20T21:58:40.459Z,97782.53
2023-10-20T22:01:09.901Z,97772.38
2023-10-20T22:03:39.307Z,97777.66
2023-10-20T22:06:10.310Z,97772.38
2023-10-20T22:08:37.225Z,97768.34
2023-10-20T22:11:03.847Z,97771.19
2023-10-20T22:13:30.361Z,97758.78
2023-10-20T22:15:56.947Z,97760.81
2023-10-20T22:18:26.220Z,97760.63
2023-10-20T22:20:52.875Z,97757.38
2023-10-20T22:23:19.648Z,97763.91
2023-10-20T22:25:46.421Z,97748.44
2023-10-20T22:28:12.929Z,97748.03
2023-10-20T22:30:39.374Z,97750.91
2023-10-20T22:33:05.984Z,97727.72
2023-10-20T22:35:32.466Z,97704.94
2023-10-20T22:38:01.852Z,97707.59
2023-10-20T22:40:28.303Z,97709.63
2023-10-20T22:42:55.220Z,97717.97
2023-10-20T22:45:21.731Z,97714.91
2023-10-20T22:47:48.238Z,97715.31
2023-10-20T22:50:19.408Z,97720.41
2023-10-20T22:52:47.778Z,97706.16
2023-10-20T22:55:14.446Z,97706.16
2023-10-20T22:57:41.093Z,97698.25
2023-10-20T23:00:10.852Z,97720.59
2023-10-20T23:02:39.610Z,97715.09
2023-10-20T23:05:08.846Z,97724.47
2023-10-20T23:07:35.736Z,97720.81
2023-10-20T23:10:05.621Z,97710.63
2023-10-20T23:12:32.912Z,97720.41
2023-10-20T23:15:00.302Z,97716.75
2023-10-20T23:17:27.248Z,97716.31
2023-10-20T23:19:54.269Z,97722.84
2023-10-20T23:22:20.764Z,97721.41
2023-10-20T23:24:49.299Z,97722.03
2023-10-20T23:27:15.788Z,97722.00
2023-10-20T23:29:42.365Z,97715.13
2023-10-20T23:32:10.975Z,97709.41
2023-10-20T23:34:40.524Z,97715.50
2023-10-20T23:37:08.629Z,97723.25
2023-10-20T23:39:36.766Z,97725.22
2023-10-20T23:42:05.055Z,97736.19
2023-10-20T23:44:31.886Z,97741.06
2023-10-20T23:46:58.313Z,97746.94
2023-10-20T23:49:24.989Z,97754.06
2023-10-20T23:51:54.833Z,97758.16
2023-10-20T23:54:23.845Z,97765.88
2023-10-20T23:56:53.762Z,97770.09
2023-10-20T23:59:22.620Z,97774.41
